createdAt,value
2023-04-25T00:00:12.496Z,22.7
2023-04-25T00:01:51.238Z,22.7
2023-04-25T00:03:29.990Z,22.7
2023-04-25T00:05:08.730Z,22.7
2023-04-25T00:06:47.474Z,22.7
2023-04-25T00:08:26.235Z,22.7
2023-04-25T00:10:04.969Z,22.7
2023-04-25T00:11:43.712Z,22.7
2023-04-25T00:13:22.449Z,22.7
2023-04-25T00:14:29.683Z,22.7
2023-04-25T00:15:36.863Z,22.7
2023-04-25T00:17:15.595Z,22.7
2023-04-25T00:18:54.337Z,22.7
2023-04-25T00:20:33.077Z,22.7
2023-04-25T00:22:11.818Z,22.7
2023-04-25T00:23:50.563Z,22.7
2023-04-25T00:25:29.304Z,22.7
2023-04-25T00:27:08.052Z,22.7
2023-04-25T00:30:57.682Z,22.7
2023-04-25T00:32:04.447Z,22.7
2023-04-25T00:33:11.184Z,22.7
2023-04-25T00:34:17.894Z,22.7
2023-04-25T00:35:24.612Z,22.7
2023-04-25T00:36:31.340Z,22.7
2023-04-25T00:37:38.117Z,22.7
2023-04-25T00:38:44.892Z,22.7
2023-04-25T00:39:51.667Z,22.7
2023-04-25T00:40:58.451Z,22.6
2023-04-25T00:42:05.241Z,22.7
2023-04-25T00:43:12.011Z,22.7
2023-04-25T00:44:18.788Z,22.7
2023-04-25T00:45:25.560Z,22.7
2023-04-25T00:46:32.343Z,22.6
2023-04-25T00:47:39.130Z,22.6
2023-04-25T00:48:45.892Z,22.7
2023-04-25T00:49:52.626Z,22.7
2023-04-25T00:50:59.423Z,22.7
2023-04-25T00:52:06.111Z,22.7
2023-04-25T00:53:12.897Z,22.7
2023-04-25T00:54:19.676Z,22.7
2023-04-25T00:55:26.392Z,22.7
2023-04-25T00:56:33.118Z,22.7
2023-04-25T00:57:39.853Z,22.7
2023-04-25T00:58:46.617Z,22.7
2023-04-25T01:00:58.838Z,22.7
2023-04-25T01:02:37.562Z,22.7
2023-04-25T01:03:50.686Z,22.7
2023-04-25T01:04:57.981Z,22.7
2023-04-25T01:06:36.670Z,22.6
2023-04-25T01:08:15.412Z,22.6
2023-04-25T01:09:54.227Z,22.6
2023-04-25T01:11:32.880Z,22.6
2023-04-25T01:13:11.625Z,22.6
2023-04-25T01:14:50.366Z,22.6
2023-04-25T01:16:29.105Z,22.6
2023-04-25T01:18:07.841Z,22.6
2023-04-25T01:19:46.585Z,22.6
2023-04-25T01:21:26.353Z,22.6
2023-04-25T01:24:42.268Z,22.6
2023-04-25T01:25:49.042Z,22.6
2023-04-25T01:26:55.812Z,22.6
2023-04-25T01:28:02.545Z,22.6
2023-04-25T01:29:09.350Z,22.6
2023-04-25T01:30:16.101Z,22.6
2023-04-25T01:31:22.881Z,22.6
2023-04-25T01:32:29.652Z,22.6
2023-04-25T01:33:36.425Z,22.6
2023-04-25T01:34:43.210Z,22.6
2023-04-25T01:35:49.997Z,22.6
2023-04-25T01:36:56.768Z,22.6
2023-04-25T01:38:03.551Z,22.6
2023-04-25T01:39:10.405Z,22.6
2023-04-25T01:40:17.122Z,22.6
2023-04-25T01:41:23.895Z,22.6
2023-04-25T01:42:30.663Z,22.6
2023-04-25T01:43:37.557Z,22.6
2023-04-25T01:44:44.160Z,22.6
2023-04-25T01:46:57.720Z,22.6
2023-04-25T01:48:04.498Z,22.6
2023-04-25T01:49:11.278Z,22.6
2023-04-25T01:50:18.054Z,22.6
2023-04-25T01:51:24.835Z,22.6
2023-04-25T01:53:37.057Z,22.6
2023-04-25T01:54:44.340Z,22.6
2023-04-25T01:55:51.573Z,22.6
2023-04-25T01:57:30.309Z,22.6
2023-04-25T01:59:09.065Z,22.6
2023-04-25T02:00:47.784Z,22.6
2023-04-25T02:02:26.547Z,22.6
2023-04-25T02:04:05.296Z,22.6
2023-04-25T02:05:44.007Z,22.6
2023-04-25T02:07:22.742Z,22.6
2023-04-25T02:09:01.484Z,22.5
2023-04-25T02:10:40.219Z,22.5
2023-04-25T02:11:47.417Z,22.5
2023-04-25T02:14:48.292Z,22.5
2023-04-25T02:18:04.850Z,22.6
2023-04-25T02:19:59.815Z,22.6
2023-04-25T02:21:38.564Z,22.6
2023-04-25T02:23:17.298Z,22.6
2023-04-25T02:24:56.039Z,22.6
2023-04-25T02:26:34.786Z,22.6
2023-04-25T02:28:13.522Z,22.6
2023-04-25T02:29:20.732Z,22.6
2023-04-25T02:30:27.971Z,22.6
2023-04-25T02:32:06.727Z,22.6
2023-04-25T02:33:45.453Z,22.6
2023-04-25T02:35:24.199Z,22.6
2023-04-25T02:37:02.935Z,22.6
2023-04-25T02:38:41.679Z,22.6
2023-04-25T02:40:20.419Z,22.6
2023-04-25T02:41:59.158Z,22.6
2023-04-25T02:43:37.892Z,22.6
2023-04-25T02:45:16.649Z,22.6
2023-04-25T02:46:23.888Z,22.6
2023-04-25T02:47:31.036Z,22.5
2023-04-25T02:49:09.775Z,22.6
2023-04-25T02:50:48.513Z,22.6
2023-04-25T02:52:27.320Z,22.6
2023-04-25T02:54:06.155Z,22.6
2023-04-25T02:55:44.744Z,22.6
2023-04-25T02:59:52.790Z,22.6
2023-04-25T03:02:50.925Z,22.6
2023-04-25T03:03:58.088Z,22.6
2023-04-25T03:05:36.848Z,22.6
2023-04-25T03:07:15.575Z,22.6
2023-04-25T03:08:54.315Z,22.6
2023-04-25T03:10:33.060Z,22.6
2023-04-25T03:12:11.798Z,22.6
2023-04-25T03:13:50.540Z,22.6
2023-04-25T03:15:29.281Z,22.6
2023-04-25T03:17:08.020Z,22.6
2023-04-25T03:18:46.762Z,22.6
2023-04-25T03:20:25.513Z,22.6
2023-04-25T03:21:32.700Z,22.6
2023-04-25T03:22:39.897Z,22.6
2023-04-25T03:24:18.644Z,22.5
2023-04-25T03:25:57.378Z,22.6
2023-04-25T03:27:36.105Z,22.6
2023-04-25T03:29:14.857Z,22.6
2023-04-25T03:30:53.599Z,22.5
2023-04-25T03:32:32.324Z,22.5
2023-04-25T03:34:11.061Z,22.5
2023-04-25T03:35:49.809Z,22.5
2023-04-25T03:37:28.541Z,22.5
2023-04-25T03:38:35.810Z,22.5
2023-04-25T03:39:43.054Z,22.5
2023-04-25T03:43:51.102Z,22.5
2023-04-25T03:47:07.019Z,22.5
2023-04-25T03:48:13.801Z,22.5
2023-04-25T03:49:20.582Z,22.5
2023-04-25T03:50:27.356Z,22.5
2023-04-25T03:51:34.091Z,22.5
2023-04-25T03:52:40.802Z,22.5
2023-04-25T03:53:47.608Z,22.5
2023-04-25T03:54:54.238Z,22.5
2023-04-25T03:56:00.954Z,22.5
2023-04-25T03:57:07.736Z,22.5
2023-04-25T03:58:14.507Z,22.5
2023-04-25T03:59:21.292Z,22.5
2023-04-25T04:00:28.077Z,22.5
2023-04-25T04:01:34.857Z,22.5
2023-04-25T04:02:41.628Z,22.5
2023-04-25T04:03:48.436Z,22.5
2023-04-25T04:04:55.188Z,22.5
2023-04-25T04:06:01.963Z,22.5
2023-04-25T04:07:08.681Z,22.5
2023-04-25T04:08:15.462Z,22.6
2023-04-25T04:09:22.186Z,22.6
2023-04-25T04:10:28.915Z,22.6
2023-04-25T04:11:35.628Z,22.6
2023-04-25T04:12:42.394Z,22.6
2023-04-25T04:15:21.689Z,22.6
2023-04-25T04:17:00.430Z,22.6
2023-04-25T04:18:39.171Z,22.6
2023-04-25T04:20:17.916Z,22.6
2023-04-25T04:21:56.652Z,22.6
2023-04-25T04:23:03.912Z,22.6
2023-04-25T04:24:11.172Z,22.6
2023-04-25T04:25:49.911Z,22.6
2023-04-25T04:27:28.640Z,22.6
2023-04-25T04:29:07.392Z,22.7
2023-04-25T04:30:46.130Z,22.7
2023-04-25T04:32:24.864Z,22.7
2023-04-25T04:34:03.615Z,22.6
2023-04-25T04:38:11.665Z,22.7
2023-04-25T04:39:31.007Z,22.7
2023-04-25T04:41:28.090Z,22.7
2023-04-25T04:43:06.874Z,22.7
2023-04-25T04:44:45.576Z,22.7
2023-04-25T04:46:24.318Z,22.7
2023-04-25T04:48:03.071Z,22.7
2023-04-25T04:49:41.809Z,22.7
2023-04-25T04:51:20.560Z,22.7
2023-04-25T04:52:59.304Z,22.7
2023-04-25T04:54:38.041Z,22.7
2023-04-25T04:56:16.806Z,22.7
2023-04-25T04:57:23.980Z,22.7
2023-04-25T04:58:31.203Z,22.7
2023-04-25T05:00:09.923Z,22.7
2023-04-25T05:01:48.663Z,22.7
2023-04-25T05:03:27.405Z,22.7
2023-04-25T05:05:06.159Z,22.7
2023-04-25T05:06:44.894Z,22.7
2023-04-25T05:08:23.643Z,22.7
2023-04-25T05:10:02.388Z,22.7
2023-04-25T05:11:41.121Z,22.7
2023-04-25T05:13:19.888Z,22.7
2023-04-25T05:14:27.086Z,22.7
2023-04-25T05:15:34.279Z,22.7
2023-04-25T05:17:13.015Z,22.7
2023-04-25T05:21:21.080Z,22.7
2023-04-25T05:24:38.506Z,22.7
2023-04-25T05:27:55.926Z,22.8
2023-04-25T05:30:54.216Z,22.8
2023-04-25T05:32:01.406Z,22.8
2023-04-25T05:33:40.147Z,22.8
2023-04-25T05:35:18.896Z,22.8
2023-04-25T05:36:57.627Z,22.8
2023-04-25T05:38:36.385Z,22.8
2023-04-25T05:40:15.108Z,22.8
2023-04-25T05:41:53.839Z,22.8
2023-04-25T05:43:32.585Z,22.7
2023-04-25T05:45:11.339Z,22.7
2023-04-25T05:46:50.062Z,22.8
2023-04-25T05:48:28.807Z,22.7
2023-04-25T05:49:36.010Z,22.7
2023-04-25T05:50:43.205Z,22.7
2023-04-25T05:52:21.942Z,22.7
2023-04-25T05:54:00.693Z,22.7
2023-04-25T05:55:39.499Z,22.7
2023-04-25T05:57:18.174Z,22.7
2023-04-25T05:58:56.928Z,22.7
2023-04-25T06:00:35.654Z,22.7
2023-04-25T06:02:14.407Z,22.7
2023-04-25T06:03:53.146Z,22.7
2023-04-25T06:05:31.904Z,22.7
2023-04-25T06:06:39.105Z,22.7
2023-04-25T06:07:46.282Z,22.7
2023-04-25T06:11:54.354Z,22.7
2023-04-25T06:15:11.772Z,22.7
2023-04-25T06:18:28.278Z,22.7
2023-04-25T06:20:15.127Z,22.7
2023-04-25T06:21:53.853Z,22.7
2023-04-25T06:23:06.140Z,22.7
2023-04-25T06:24:13.315Z,22.7
2023-04-25T06:25:52.108Z,22.7
2023-04-25T06:27:30.812Z,22.7
2023-04-25T06:29:09.554Z,22.7
2023-04-25T06:30:48.351Z,22.7
2023-04-25T06:32:27.073Z,22.7
2023-04-25T06:34:05.778Z,22.7
2023-04-25T06:35:44.576Z,22.7
2023-04-25T06:37:23.265Z,22.7
2023-04-25T06:39:02.010Z,22.7
2023-04-25T06:40:09.202Z,22.7
2023-04-25T06:41:16.417Z,22.7
2023-04-25T06:42:55.145Z,22.7
2023-04-25T06:44:33.889Z,22.7
2023-04-25T06:46:12.633Z,22.7
2023-04-25T06:47:51.600Z,22.8
2023-04-25T06:49:30.189Z,22.8
2023-04-25T06:51:08.871Z,22.8
2023-04-25T06:52:47.583Z,22.8
2023-04-25T06:54:26.337Z,22.8
2023-04-25T06:56:05.069Z,22.8
2023-04-25T06:57:44.818Z,22.8
2023-04-25T07:01:01.318Z,22.8
2023-04-25T07:02:48.152Z,22.8
2023-04-25T07:04:26.894Z,22.8
2023-04-25T07:06:05.630Z,22.8
2023-04-25T07:07:44.370Z,22.8
2023-04-25T07:09:23.107Z,22.8
2023-04-25T07:11:01.844Z,22.8
2023-04-25T07:12:40.586Z,22.8
2023-04-25T07:14:19.328Z,22.8
2023-04-25T07:15:58.067Z,22.8
2023-04-25T07:17:36.795Z,22.8
2023-04-25T07:19:15.552Z,22.8
2023-04-25T07:20:54.290Z,22.8
2023-04-25T07:22:01.545Z,22.8
2023-04-25T07:23:08.797Z,22.8
2023-04-25T07:24:47.544Z,22.8
2023-04-25T07:26:26.274Z,22.8
2023-04-25T07:28:05.033Z,22.8
2023-04-25T07:29:43.757Z,22.8
2023-04-25T07:31:22.498Z,22.8
2023-04-25T07:33:01.249Z,22.8
2023-04-25T07:34:40.014Z,22.8
2023-04-25T07:36:18.710Z,22.9
2023-04-25T07:37:57.450Z,22.8
2023-04-25T07:39:04.691Z,22.9
2023-04-25T07:42:05.488Z,22.9
2023-04-25T07:45:22.004Z,22.9
2023-04-25T07:47:08.804Z,22.9
2023-04-25T07:48:47.565Z,22.9
2023-04-25T07:50:26.291Z,22.9
2023-04-25T07:52:05.019Z,23
2023-04-25T07:53:43.749Z,23
2023-04-25T07:55:22.470Z,23
2023-04-25T07:56:29.866Z,23
2023-04-25T07:57:37.099Z,23
2023-04-25T07:59:15.710Z,23
2023-04-25T08:00:54.446Z,23
2023-04-25T08:02:33.180Z,23
2023-04-25T08:04:11.915Z,23
2023-04-25T08:05:50.648Z,23
2023-04-25T08:07:29.382Z,23
2023-04-25T08:09:08.112Z,23
2023-04-25T08:10:46.846Z,23
2023-04-25T08:12:25.576Z,23
2023-04-25T08:13:32.828Z,23
2023-04-25T08:14:40.086Z,23
2023-04-25T08:16:18.818Z,23
2023-04-25T08:17:57.614Z,23
2023-04-25T08:19:36.327Z,23
2023-04-25T08:21:15.028Z,23
2023-04-25T08:22:53.738Z,23.1
2023-04-25T08:27:01.780Z,23
2023-04-25T08:30:00.000Z,23.1
2023-04-25T08:31:07.217Z,23.1
2023-04-25T08:32:45.954Z,23.1
2023-04-25T08:34:24.725Z,23.2
2023-04-25T08:36:03.445Z,23.2
2023-04-25T08:37:42.177Z,23.2
2023-04-25T08:39:20.947Z,23.2
2023-04-25T08:40:59.658Z,23.2
2023-04-25T08:42:38.613Z,23.2
2023-04-25T08:44:17.137Z,23.2
2023-04-25T08:45:56.008Z,23.2
2023-04-25T08:47:34.807Z,23.2
2023-04-25T08:49:10.846Z,23.3
2023-04-25T08:50:18.078Z,23.3
2023-04-25T08:51:56.821Z,23.4
2023-04-25T08:53:35.524Z,23.4
2023-04-25T08:55:14.096Z,23.4
2023-04-25T08:56:52.990Z,23.4
2023-04-25T08:58:31.740Z,23.4
2023-04-25T09:00:10.417Z,23.4
2023-04-25T09:01:49.181Z,23.4
2023-04-25T09:03:27.781Z,23.4
2023-04-25T09:05:06.529Z,23.5
2023-04-25T09:06:13.952Z,23.5
2023-04-25T09:07:21.057Z,23.5
2023-04-25T09:11:29.139Z,23.5
2023-04-25T09:14:45.586Z,23.5
2023-04-25T09:16:32.592Z,23.4
2023-04-25T09:18:11.329Z,23.4
2023-04-25T09:19:50.059Z,23.4
2023-04-25T09:21:28.745Z,23.4
2023-04-25T09:22:40.946Z,23.4
2023-04-25T09:23:48.220Z,23.4
2023-04-25T09:25:26.963Z,23.4
2023-04-25T09:27:05.546Z,23.4
2023-04-25T09:28:44.426Z,23.4
2023-04-25T09:30:23.132Z,23.5
2023-04-25T09:32:01.898Z,23.4
2023-04-25T09:33:40.614Z,23.4
2023-04-25T09:35:19.182Z,23.4
2023-04-25T09:36:58.020Z,23.4
2023-04-25T09:38:36.655Z,23.5
2023-04-25T09:39:43.926Z,23.5
2023-04-25T09:40:51.201Z,23.5
2023-04-25T09:42:29.895Z,23.5
2023-04-25T09:44:08.665Z,23.6
2023-04-25T09:45:47.413Z,23.5
2023-04-25T09:47:26.149Z,23.5
2023-04-25T09:49:05.103Z,23.5
2023-04-25T09:50:43.722Z,23.6
2023-04-25T09:52:22.481Z,23.5
2023-04-25T09:56:12.132Z,23.5
2023-04-25T09:57:20.467Z,23.5
2023-04-25T10:00:36.967Z,23.6
2023-04-25T10:02:23.541Z,23.6
2023-04-25T10:04:02.344Z,23.6
2023-04-25T10:05:41.033Z,23.6
2023-04-25T10:07:19.762Z,23.6
2023-04-25T10:08:58.513Z,23.6
2023-04-25T10:10:37.239Z,23.6
2023-04-25T10:12:15.968Z,23.7
2023-04-25T10:13:54.731Z,23.7
2023-04-25T10:15:33.506Z,23.7
2023-04-25T10:17:12.198Z,23.7
2023-04-25T10:18:50.988Z,23.7
2023-04-25T10:20:29.705Z,23.7
2023-04-25T10:22:08.440Z,23.7
2023-04-25T10:23:47.179Z,23.7
2023-04-25T10:25:25.922Z,23.7
2023-04-25T10:27:04.655Z,23.7
2023-04-25T10:28:43.423Z,23.7
2023-04-25T10:29:50.697Z,23.7
2023-04-25T10:30:57.928Z,23.8
2023-04-25T10:32:36.647Z,23.8
2023-04-25T10:34:15.418Z,23.8
2023-04-25T10:35:54.152Z,23.7
2023-04-25T10:37:32.886Z,23.8
2023-04-25T10:39:11.619Z,23.8
2023-04-25T10:43:19.767Z,23.9
2023-04-25T10:46:17.731Z,24
2023-04-25T10:47:25.028Z,24
2023-04-25T10:49:03.849Z,24
2023-04-25T10:50:42.454Z,24
2023-04-25T10:52:21.313Z,23.9
2023-04-25T10:54:00.087Z,23.9
2023-04-25T10:55:38.884Z,23.9
2023-04-25T10:57:17.379Z,23.9
2023-04-25T10:58:56.140Z,23.9
2023-04-25T11:00:35.027Z,23.9
2023-04-25T11:02:13.604Z,23.9
2023-04-25T11:03:52.466Z,23.8
2023-04-25T11:04:59.590Z,23.8
2023-04-25T11:06:06.846Z,23.9
2023-04-25T11:07:45.753Z,23.8
2023-04-25T11:09:24.518Z,23.9
2023-04-25T11:11:03.274Z,23.8
2023-04-25T11:12:42.011Z,23.8
2023-04-25T11:14:20.617Z,23.8
2023-04-25T11:15:59.261Z,23.8
2023-04-25T11:17:38.109Z,23.8
2023-04-25T11:19:16.952Z,23.8
2023-04-25T11:20:55.689Z,23.8
2023-04-25T11:22:02.920Z,23.8
2023-04-25T11:23:10.010Z,23.8
2023-04-25T11:27:18.176Z,23.8
2023-04-25T11:30:34.849Z,23.8
2023-04-25T11:32:21.572Z,23.8
2023-04-25T11:34:00.299Z,23.8
2023-04-25T11:35:39.032Z,23.8
2023-04-25T11:37:17.773Z,23.8
2023-04-25T11:38:29.966Z,23.8
2023-04-25T11:39:37.068Z,23.8
2023-04-25T11:41:15.897Z,23.8
2023-04-25T11:42:55.136Z,23.8
2023-04-25T11:44:33.485Z,23.8
2023-04-25T11:46:12.023Z,23.8
2023-04-25T11:47:50.857Z,23.8
2023-04-25T11:49:29.597Z,23.8
2023-04-25T11:51:08.376Z,23.9
2023-04-25T11:52:47.087Z,23.9
2023-04-25T11:54:25.823Z,24
2023-04-25T11:55:33.251Z,24
2023-04-25T11:56:40.286Z,24.1
2023-04-25T11:58:19.118Z,24.1
2023-04-25T11:59:57.787Z,24.1
2023-04-25T12:01:36.408Z,24.1
2023-04-25T12:03:15.303Z,24.2
2023-04-25T12:04:54.091Z,24.2
2023-04-25T12:06:32.806Z,24.2
2023-04-25T12:08:11.516Z,24.2
2023-04-25T12:12:00.922Z,24.1
2023-04-25T12:13:08.528Z,24.2
2023-04-25T12:14:55.312Z,24.2
2023-04-25T12:16:34.041Z,24.2
2023-04-25T12:18:12.797Z,24.2
2023-04-25T12:19:51.562Z,24.3
2023-04-25T12:21:30.325Z,24.3
2023-04-25T12:23:09.118Z,24.4
2023-04-25T12:24:47.708Z,24.4
2023-04-25T12:26:26.514Z,24.5
2023-04-25T12:28:05.281Z,24.5
2023-04-25T12:29:44.002Z,24.5
2023-04-25T12:31:22.735Z,24.5
2023-04-25T12:33:01.451Z,24.5
2023-04-25T12:34:40.289Z,24.6
2023-04-25T12:36:18.954Z,24.5
2023-04-25T12:37:57.715Z,24.6
2023-04-25T12:39:36.405Z,24.6
2023-04-25T12:41:15.165Z,24.7
2023-04-25T12:42:53.748Z,24.7
2023-04-25T12:44:32.488Z,24.7
2023-04-25T12:45:39.798Z,24.7
2023-04-25T12:46:46.975Z,24.7
2023-04-25T12:48:25.844Z,24.7
2023-04-25T12:50:04.525Z,24.8
2023-04-25T12:51:43.193Z,24.7
2023-04-25T12:55:51.158Z,24.7
2023-04-25T12:59:08.675Z,24.6
2023-04-25T13:02:07.906Z,24.5
2023-04-25T13:03:16.080Z,24.5
2023-04-25T13:06:33.520Z,24.5
2023-04-25T13:09:50.900Z,24.5
2023-04-25T13:13:08.351Z,24.4
2023-04-25T13:16:24.862Z,24.4
2023-04-25T13:18:11.500Z,24.5
2023-04-25T13:19:50.219Z,24.5
2023-04-25T13:21:29.177Z,24.5
2023-04-25T13:23:07.864Z,24.6
2023-04-25T13:24:46.541Z,24.7
2023-04-25T13:26:25.359Z,24.7
2023-04-25T13:28:04.119Z,24.8
2023-04-25T13:29:42.872Z,24.8
2023-04-25T13:31:21.579Z,24.8
2023-04-25T13:33:00.319Z,24.7
2023-04-25T13:34:39.031Z,24.7
2023-04-25T13:35:46.153Z,24.6
2023-04-25T13:36:53.400Z,24.6
2023-04-25T13:40:10.886Z,24.7
2023-04-25T13:41:49.641Z,24.8
2023-04-25T13:43:28.401Z,24.8
2023-04-25T13:45:07.247Z,25
2023-04-25T13:46:45.906Z,24.9
2023-04-25T13:48:24.574Z,24.9
2023-04-25T13:50:03.308Z,24.9
2023-04-25T13:51:42.175Z,24.8
2023-04-25T13:52:49.365Z,25
2023-04-25T13:53:56.671Z,25.1
2023-04-25T13:58:04.613Z,25.1
2023-04-25T14:01:21.191Z,25.2
2023-04-25T14:03:08.013Z,25.4
2023-04-25T14:04:46.746Z,25.5
2023-04-25T14:06:25.457Z,25.6
2023-04-25T14:08:04.168Z,25.7
2023-04-25T14:09:16.358Z,25.8
2023-04-25T14:10:23.595Z,25.7
2023-04-25T14:12:02.302Z,25.7
2023-04-25T14:13:41.028Z,25.5
2023-04-25T14:15:19.811Z,25.3
2023-04-25T14:16:58.485Z,25.3
2023-04-25T14:18:37.283Z,25.2
2023-04-25T14:20:15.987Z,25.2
2023-04-25T14:21:54.905Z,25.2
2023-04-25T14:23:33.464Z,25.1
2023-04-25T14:25:12.224Z,25.1
2023-04-25T14:26:19.459Z,25.1
2023-04-25T14:27:26.669Z,25
2023-04-25T14:29:05.484Z,25
2023-04-25T14:30:44.130Z,25
2023-04-25T14:32:22.882Z,24.9
2023-04-25T14:34:01.595Z,25
2023-04-25T14:35:40.332Z,24.9
2023-04-25T14:37:19.078Z,24.9
2023-04-25T14:38:57.842Z,24.9
2023-04-25T14:42:47.566Z,24.9
2023-04-25T14:43:54.597Z,24.8
2023-04-25T14:45:01.249Z,24.8
2023-04-25T14:46:08.032Z,24.8
2023-04-25T14:48:21.614Z,24.8
2023-04-25T14:49:28.420Z,24.8
2023-04-25T14:50:35.140Z,24.8
2023-04-25T14:52:48.740Z,24.8
2023-04-25T14:53:55.454Z,24.7
2023-04-25T14:55:02.230Z,24.8
2023-04-25T14:56:09.006Z,24.7
2023-04-25T14:57:15.878Z,24.7
2023-04-25T14:58:22.570Z,24.7
2023-04-25T14:59:29.393Z,24.8
2023-04-25T15:01:43.054Z,24.7
2023-04-25T15:02:49.694Z,24.7
2023-04-25T15:03:56.287Z,24.7
2023-04-25T15:05:03.209Z,24.7
2023-04-25T15:06:09.911Z,24.7
2023-04-25T15:07:16.571Z,24.7
2023-04-25T15:08:23.285Z,24.7
2023-04-25T15:09:30.030Z,24.6
2023-04-25T15:10:36.914Z,24.6
2023-04-25T15:12:49.069Z,24.6
2023-04-25T15:14:27.932Z,24.6
2023-04-25T15:15:40.554Z,24.6
2023-04-25T15:16:47.835Z,24.6
2023-04-25T15:18:26.577Z,24.6
2023-04-25T15:20:05.258Z,24.6
2023-04-25T15:21:43.993Z,24.5
2023-04-25T15:23:22.805Z,24.5
2023-04-25T15:25:01.592Z,24.5
2023-04-25T15:26:40.277Z,24.5
2023-04-25T15:28:19.097Z,24.5
2023-04-25T15:29:57.624Z,24.5
2023-04-25T15:31:36.390Z,24.5
2023-04-25T15:33:16.198Z,24.5
2023-04-25T15:36:33.511Z,24.5
2023-04-25T15:39:50.002Z,24.5
2023-04-25T15:41:36.960Z,24.5
2023-04-25T15:43:15.642Z,24.5
2023-04-25T15:44:54.303Z,24.4
2023-04-25T15:46:33.072Z,24.4
2023-04-25T15:48:11.793Z,24.4
2023-04-25T15:49:50.541Z,24.4
2023-04-25T15:51:29.295Z,24.4
2023-04-25T15:53:08.083Z,24.3
2023-04-25T15:54:46.834Z,24.3
2023-04-25T15:56:25.537Z,24.3
2023-04-25T15:57:32.740Z,24.3
2023-04-25T15:58:40.018Z,24.3
2023-04-25T16:00:18.782Z,24.2
2023-04-25T16:01:57.473Z,24.2
2023-04-25T16:03:36.343Z,24.2
2023-04-25T16:05:15.080Z,24.2
2023-04-25T16:06:53.799Z,24.2
2023-04-25T16:08:32.552Z,24.2
2023-04-25T16:10:11.183Z,24.2
2023-04-25T16:11:49.901Z,24.2
2023-04-25T16:14:36.000Z,24.1
2023-04-25T16:15:43.257Z,24.1
2023-04-25T16:17:21.832Z,24.1
2023-04-25T16:21:29.916Z,24.1
2023-04-25T16:24:47.340Z,24.1
2023-04-25T16:28:03.836Z,24.1
2023-04-25T16:29:50.671Z,24.1
2023-04-25T16:31:03.048Z,24.1
2023-04-25T16:32:10.210Z,24.1
2023-04-25T16:33:48.847Z,24.1
2023-04-25T16:35:27.643Z,24
2023-04-25T16:37:06.381Z,24
2023-04-25T16:38:45.213Z,24
2023-04-25T16:40:23.910Z,24
2023-04-25T16:42:02.517Z,24
2023-04-25T16:43:41.349Z,23.9
2023-04-25T16:45:20.040Z,24
2023-04-25T16:46:58.734Z,23.9
2023-04-25T16:48:05.993Z,23.9
2023-04-25T16:49:13.337Z,23.9
2023-04-25T16:50:52.050Z,23.9
2023-04-25T16:52:30.720Z,23.9
2023-04-25T16:54:09.452Z,23.9
2023-04-25T16:55:48.187Z,23.8
2023-04-25T16:57:26.936Z,23.8
2023-04-25T16:59:05.794Z,23.8
2023-04-25T17:00:44.492Z,23.8
2023-04-25T17:02:23.252Z,23.8
2023-04-25T17:04:01.942Z,23.8
2023-04-25T17:05:09.299Z,23.8
2023-04-25T17:08:10.026Z,23.8
2023-04-25T17:11:26.482Z,23.7
2023-04-25T17:13:13.321Z,23.7
2023-04-25T17:14:51.975Z,23.6
2023-04-25T17:16:30.736Z,23.6
2023-04-25T17:18:09.551Z,23.6
2023-04-25T17:19:48.325Z,23.6
2023-04-25T17:21:27.052Z,23.6
2023-04-25T17:22:34.362Z,23.6
2023-04-25T17:23:41.451Z,23.6
2023-04-25T17:25:20.182Z,23.6
2023-04-25T17:26:58.965Z,23.6
2023-04-25T17:28:37.682Z,23.6
2023-04-25T17:30:16.398Z,23.6
2023-04-25T17:31:55.139Z,23.5
2023-04-25T17:33:33.887Z,23.5
2023-04-25T17:35:12.670Z,23.5
2023-04-25T17:36:51.338Z,23.5
2023-04-25T17:38:30.070Z,23.5
2023-04-25T17:39:37.422Z,23.5
2023-04-25T17:40:44.574Z,23.5
2023-04-25T17:42:23.337Z,23.5
2023-04-25T17:44:02.124Z,23.5
2023-04-25T17:45:40.821Z,23.5
2023-04-25T17:47:19.530Z,23.5
2023-04-25T17:48:58.293Z,23.5
2023-04-25T17:53:06.358Z,23.5
2023-04-25T17:56:04.466Z,23.6
2023-04-25T17:57:11.668Z,23.6
2023-04-25T17:58:50.434Z,23.6
2023-04-25T18:00:29.184Z,23.6
2023-04-25T18:02:07.904Z,23.6
2023-04-25T18:03:46.647Z,23.6
2023-04-25T18:05:25.369Z,23.5
2023-04-25T18:07:04.200Z,23.5
2023-04-25T18:08:42.896Z,23.5
2023-04-25T18:10:21.609Z,23.5
2023-04-25T18:12:00.385Z,23.5
2023-04-25T18:13:39.076Z,23.5
2023-04-25T18:14:46.375Z,23.5
2023-04-25T18:15:53.582Z,23.5
2023-04-25T18:17:32.378Z,23.5
2023-04-25T18:19:11.151Z,23.5
2023-04-25T18:20:49.794Z,23.5
2023-04-25T18:22:28.651Z,23.4
2023-04-25T18:24:07.366Z,23.4
2023-04-25T18:25:46.156Z,23.4
2023-04-25T18:27:24.739Z,23.4
2023-04-25T18:29:03.494Z,23.4
2023-04-25T18:30:42.248Z,23.4
2023-04-25T18:31:49.482Z,23.4
2023-04-25T18:32:56.741Z,23.4
2023-04-25T18:37:04.799Z,23.3
2023-04-25T18:40:21.355Z,23.4
2023-04-25T18:42:08.139Z,23.3
2023-04-25T18:43:46.987Z,23.4
2023-04-25T18:45:25.600Z,23.3
2023-04-25T18:47:04.323Z,23.3
2023-04-25T18:48:16.486Z,23.3
2023-04-25T18:49:23.743Z,23.3
2023-04-25T18:51:02.475Z,23.3
2023-04-25T18:52:41.210Z,23.3
2023-04-25T18:54:19.964Z,23.3
2023-04-25T18:55:58.696Z,23.3
2023-04-25T18:57:37.452Z,23.3
2023-04-25T18:59:16.231Z,23.3
2023-04-25T19:00:54.912Z,23.2
2023-04-25T19:02:33.655Z,23.2
2023-04-25T19:04:12.417Z,23.2
2023-04-25T19:05:19.729Z,23.2
2023-04-25T19:06:26.924Z,23.2
2023-04-25T19:08:05.649Z,23.2
2023-04-25T19:09:44.391Z,23.2
2023-04-25T19:11:23.132Z,23.2
2023-04-25T19:13:01.909Z,23.2
2023-04-25T19:14:40.693Z,23.2
2023-04-25T19:16:19.357Z,23.1
2023-04-25T19:17:58.122Z,23.1
2023-04-25T19:21:47.653Z,23.2
2023-04-25T19:22:54.503Z,23.1
2023-04-25T19:24:01.206Z,23.1
2023-04-25T19:25:07.894Z,23.1
2023-04-25T19:26:14.597Z,23.1
2023-04-25T19:27:21.444Z,23.1
2023-04-25T19:28:28.080Z,23.1
2023-04-25T19:29:34.762Z,23.1
2023-04-25T19:30:41.475Z,23.1
2023-04-25T19:31:48.241Z,23.1
2023-04-25T19:32:54.948Z,23.1
2023-04-25T19:34:01.820Z,23.1
2023-04-25T19:35:08.472Z,23.1
2023-04-25T19:36:15.087Z,23.1
2023-04-25T19:37:21.820Z,23.1
2023-04-25T19:38:28.563Z,23.1
2023-04-25T19:39:35.252Z,23.1
2023-04-25T19:40:42.003Z,23.1
2023-04-25T19:41:48.754Z,23.1
2023-04-25T19:42:55.421Z,23.1
2023-04-25T19:44:02.241Z,23
2023-04-25T19:45:08.984Z,23
2023-04-25T19:46:15.746Z,23
2023-04-25T19:47:22.613Z,23.1
2023-04-25T19:48:29.386Z,23
2023-04-25T19:49:36.070Z,23
2023-04-25T19:51:48.367Z,23
2023-04-25T19:53:27.013Z,23
2023-04-25T19:54:40.636Z,23
2023-04-25T19:55:47.926Z,23
2023-04-25T19:57:26.622Z,23
2023-04-25T19:59:05.509Z,23
2023-04-25T20:00:44.093Z,23
2023-04-25T20:02:22.819Z,22.9
2023-04-25T20:04:01.545Z,22.9
2023-04-25T20:05:40.302Z,22.9
2023-04-25T20:07:19.015Z,23
2023-04-25T20:08:57.749Z,22.9
2023-04-25T20:10:36.503Z,22.9
2023-04-25T20:12:16.232Z,22.9
2023-04-25T20:15:33.697Z,22.9
2023-04-25T20:18:50.409Z,22.9
2023-04-25T20:20:45.223Z,22.9
2023-04-25T20:22:23.969Z,22.9
2023-04-25T20:24:02.747Z,22.9
2023-04-25T20:25:41.432Z,22.9
2023-04-25T20:27:20.168Z,22.9
2023-04-25T20:28:58.910Z,22.9
2023-04-25T20:30:37.663Z,22.9
2023-04-25T20:32:16.436Z,22.9
2023-04-25T20:33:55.129Z,22.9
2023-04-25T20:35:33.858Z,22.8
2023-04-25T20:36:41.120Z,22.8
2023-04-25T20:37:48.362Z,22.9
2023-04-25T20:39:27.105Z,22.8
2023-04-25T20:41:05.835Z,22.8
2023-04-25T20:42:44.692Z,22.8
2023-04-25T20:44:23.447Z,22.8
2023-04-25T20:46:02.207Z,22.8
2023-04-25T20:47:40.792Z,22.8
2023-04-25T20:49:19.573Z,22.8
2023-04-25T20:50:58.356Z,22.8
2023-04-25T20:52:37.014Z,22.8
2023-04-25T20:53:44.313Z,22.8
2023-04-25T20:54:51.553Z,22.8
2023-04-25T20:56:30.429Z,22.8
2023-04-25T21:00:38.432Z,22.8
2023-04-25T21:03:54.809Z,22.7
2023-04-25T21:05:41.635Z,22.7
2023-04-25T21:07:20.380Z,22.7
2023-04-25T21:08:59.114Z,22.7
2023-04-25T21:10:11.403Z,22.7
2023-04-25T21:11:18.592Z,22.7
2023-04-25T21:12:57.349Z,22.7
2023-04-25T21:14:36.018Z,22.7
2023-04-25T21:16:14.697Z,22.7
2023-04-25T21:17:53.522Z,22.7
2023-04-25T21:19:32.214Z,22.7
2023-04-25T21:21:11.045Z,22.7
2023-04-25T21:22:49.643Z,22.7
2023-04-25T21:24:28.476Z,22.7
2023-04-25T21:26:07.120Z,22.7
2023-04-25T21:27:14.332Z,22.7
2023-04-25T21:28:21.543Z,22.7
2023-04-25T21:30:00.268Z,22.7
2023-04-25T21:31:39.029Z,22.7
2023-04-25T21:33:17.751Z,22.7
2023-04-25T21:34:56.490Z,22.7
2023-04-25T21:36:35.240Z,22.7
2023-04-25T21:38:13.976Z,22.7
2023-04-25T21:39:52.877Z,22.6
2023-04-25T21:41:31.451Z,22.6
2023-04-25T21:43:42.317Z,22.6
2023-04-25T21:45:38.043Z,22.6
2023-04-25T21:46:44.757Z,22.6
2023-04-25T21:47:51.566Z,22.6
2023-04-25T21:48:58.320Z,22.6
2023-04-25T21:50:05.057Z,22.6
2023-04-25T21:51:11.841Z,22.6
2023-04-25T21:52:18.609Z,22.6
2023-04-25T21:53:25.372Z,22.6
2023-04-25T21:54:32.156Z,22.6
2023-04-25T21:55:38.938Z,22.6